createdAt,value
2023-03-11T00:00:55.239Z,1.35
2023-03-11T00:03:23.400Z,1.19
2023-03-11T00:05:50.458Z,1.13
2023-03-11T00:08:19.806Z,1.14
2023-03-11T00:10:47.359Z,1.10
2023-03-11T00:13:15.689Z,0.96
2023-03-11T00:15:43.795Z,0.96
2023-03-11T00:18:10.552Z,0.91
2023-03-11T00:20:38.843Z,0.88
2023-03-11T00:23:06.841Z,0.88
2023-03-11T00:25:35.565Z,0.87
2023-03-11T00:28:02.120Z,0.90
2023-03-11T00:30:28.725Z,0.85
2023-03-11T00:32:57.359Z,0.83
2023-03-11T00:35:29.682Z,0.85
2023-03-11T00:37:58.583Z,0.93
2023-03-11T00:40:26.954Z,0.92
2023-03-11T00:42:53.578Z,1.04
2023-03-11T00:45:20.581Z,1.07
2023-03-11T00:47:47.119Z,1.03
2023-03-11T00:50:25.177Z,1.15
2023-03-11T00:52:52.729Z,1.10
2023-03-11T00:55:22.709Z,1.12
2023-03-11T00:57:58.263Z,1.16
2023-03-11T01:00:28.152Z,1.15
2023-03-11T01:02:55.553Z,1.12
2023-03-11T01:05:26.630Z,1.14
2023-03-11T01:07:53.108Z,1.14
2023-03-11T01:10:20.068Z,1.16
2023-03-11T01:12:46.704Z,1.23
2023-03-11T01:15:19.951Z,1.11
2023-03-11T01:17:46.789Z,1.18
2023-03-11T01:20:13.663Z,1.20
2023-03-11T01:22:40.306Z,1.17
2023-03-11T01:25:07.075Z,1.19
2023-03-11T01:27:33.617Z,1.15
2023-03-11T01:30:01.312Z,1.22
2023-03-11T01:32:27.921Z,1.24
2023-03-11T01:34:54.539Z,1.22
2023-03-11T01:37:21.028Z,1.27
2023-03-11T01:39:48.373Z,1.31
2023-03-11T01:42:14.961Z,1.32
2023-03-11T01:44:43.272Z,1.38
2023-03-11T01:47:09.771Z,1.44
2023-03-11T01:49:42.246Z,1.38
2023-03-11T01:52:08.973Z,1.35
2023-03-11T01:54:46.227Z,1.34
2023-03-11T01:57:13.882Z,1.31
2023-03-11T01:59:45.030Z,1.31
2023-03-11T02:02:16.404Z,1.31
2023-03-11T02:04:43.049Z,1.32
2023-03-11T02:07:10.283Z,1.28
2023-03-11T02:09:37.627Z,1.27
2023-03-11T02:12:05.615Z,1.22
2023-03-11T02:14:32.308Z,1.25
2023-03-11T02:16:59.763Z,1.21
2023-03-11T02:19:56.345Z,1.28
2023-03-11T02:22:26.074Z,1.18
2023-03-11T02:25:12.109Z,1.19
2023-03-11T02:27:41.836Z,1.21
2023-03-11T02:30:13.380Z,1.20
2023-03-11T02:32:43.534Z,1.18
2023-03-11T02:35:10.225Z,1.21
2023-03-11T02:37:36.747Z,1.22
2023-03-11T02:40:24.290Z,1.26
2023-03-11T02:42:56.671Z,1.23
2023-03-11T02:45:25.335Z,1.27
2023-03-11T02:47:54.889Z,1.19
2023-03-11T02:50:21.945Z,1.19
2023-03-11T02:52:49.738Z,1.17
2023-03-11T02:55:18.097Z,1.21
2023-03-11T02:57:44.857Z,1.22
2023-03-11T03:00:15.101Z,1.26
2023-03-11T03:02:46.398Z,1.28
2023-03-11T03:05:13.438Z,1.20
2023-03-11T03:07:40.492Z,1.21
2023-03-11T03:10:07.730Z,1.18
2023-03-11T03:12:34.450Z,1.17
2023-03-11T03:15:01.026Z,1.23
2023-03-11T03:17:27.641Z,1.22
2023-03-11T03:19:54.170Z,1.25
2023-03-11T03:22:20.690Z,1.30
2023-03-11T03:24:48.203Z,1.30
2023-03-11T03:27:15.103Z,1.26
2023-03-11T03:29:41.659Z,1.22
2023-03-11T03:32:08.675Z,1.22
2023-03-11T03:34:35.291Z,1.29
2023-03-11T03:37:01.775Z,1.25
2023-03-11T03:39:30.493Z,1.31
2023-03-11T03:41:57.867Z,1.29
2023-03-11T03:44:30.532Z,1.27
2023-03-11T03:46:58.245Z,1.36
2023-03-11T03:49:24.977Z,1.26
2023-03-11T03:51:52.053Z,1.26
2023-03-11T03:54:26.122Z,1.26
2023-03-11T03:56:52.619Z,1.18
2023-03-11T03:59:19.353Z,1.19
2023-03-11T04:01:51.095Z,1.18
2023-03-11T04:04:18.967Z,1.11
2023-03-11T04:06:45.612Z,1.12
2023-03-11T04:09:12.635Z,1.22
2023-03-11T04:11:39.313Z,1.21
2023-03-11T04:14:06.471Z,1.21
2023-03-11T04:16:37.212Z,1.21
2023-03-11T04:19:09.344Z,1.26
2023-03-11T04:21:36.572Z,1.18
2023-03-11T04:24:04.267Z,1.08
2023-03-11T04:26:34.574Z,1.10
2023-03-11T04:29:02.149Z,1.03
2023-03-11T04:31:32.281Z,0.97
2023-03-11T04:34:02.140Z,0.90
2023-03-11T04:36:28.982Z,0.90
2023-03-11T04:38:56.977Z,0.86
2023-03-11T04:41:24.499Z,0.85
2023-03-11T04:43:51.046Z,0.86
2023-03-11T04:46:17.808Z,0.93
2023-03-11T04:48:44.378Z,0.90
2023-03-11T04:51:11.086Z,0.93
2023-03-11T04:53:37.925Z,0.88
2023-03-11T04:56:04.638Z,0.91
2023-03-11T04:58:31.473Z,0.92
2023-03-11T05:00:58.089Z,0.91
2023-03-11T05:03:24.837Z,0.94
2023-03-11T05:05:53.073Z,0.97
2023-03-11T05:08:20.735Z,1.00
2023-03-11T05:10:47.292Z,0.99
2023-03-11T05:13:13.868Z,1.04
2023-03-11T05:15:41.762Z,1.08
2023-03-11T05:18:09.040Z,1.10
2023-03-11T05:20:37.432Z,1.08
2023-03-11T05:23:04.777Z,1.08
2023-03-11T05:25:33.785Z,1.04
2023-03-11T05:28:01.308Z,1.11
2023-03-11T05:30:28.485Z,1.13
2023-03-11T05:32:56.827Z,1.11
2023-03-11T05:35:24.406Z,1.06
2023-03-11T05:37:52.494Z,1.09
2023-03-11T05:40:19.674Z,1.13
2023-03-11T05:42:47.348Z,1.13
2023-03-11T05:45:15.353Z,1.14
2023-03-11T05:47:44.772Z,1.12
2023-03-11T05:50:13.739Z,1.17
2023-03-11T05:52:41.518Z,1.12
2023-03-11T05:55:09.871Z,1.12
2023-03-11T05:57:39.316Z,1.21
2023-03-11T06:00:12.280Z,1.21
2023-03-11T06:02:45.598Z,1.21
2023-03-11T06:05:15.530Z,1.13
2023-03-11T06:07:44.023Z,1.11
2023-03-11T06:10:11.559Z,1.06
2023-03-11T06:12:38.917Z,1.00
2023-03-11T06:15:14.411Z,0.91
2023-03-11T06:17:41.965Z,0.86
2023-03-11T06:20:09.938Z,0.88
2023-03-11T06:22:39.972Z,0.80
2023-03-11T06:25:08.156Z,0.81
2023-03-11T06:27:35.896Z,0.74
2023-03-11T06:30:02.709Z,0.70
2023-03-11T06:32:35.291Z,0.68
2023-03-11T06:35:01.980Z,0.70
2023-03-11T06:37:28.857Z,0.67
2023-03-11T06:39:56.256Z,0.63
2023-03-11T06:42:25.439Z,0.60
2023-03-11T06:44:54.427Z,0.72
2023-03-11T06:47:21.354Z,0.68
2023-03-11T06:49:50.490Z,0.80
2023-03-11T06:52:17.279Z,0.94
2023-03-11T06:54:44.224Z,0.94
2023-03-11T06:57:11.137Z,0.99
2023-03-11T06:59:38.821Z,1.12
2023-03-11T07:02:06.648Z,1.26
2023-03-11T07:04:33.472Z,1.34
2023-03-11T07:07:00.025Z,1.30
2023-03-11T07:09:27.704Z,1.25
2023-03-11T07:11:54.269Z,1.21
2023-03-11T07:14:27.133Z,1.17
2023-03-11T07:16:55.966Z,1.17
2023-03-11T07:19:37.119Z,1.16
2023-03-11T07:22:03.557Z,1.12
2023-03-11T07:24:29.963Z,1.06
2023-03-11T07:26:56.384Z,1.02
2023-03-11T07:29:22.794Z,0.97
2023-03-11T07:31:49.432Z,0.97
2023-03-11T07:34:16.549Z,0.95
2023-03-11T07:36:43.227Z,0.97
2023-03-11T07:39:14.896Z,0.98
2023-03-11T07:41:41.823Z,0.98
2023-03-11T07:44:09.934Z,0.97
2023-03-11T07:46:36.431Z,0.92
2023-03-11T07:49:03.664Z,0.96
2023-03-11T07:51:32.383Z,0.94
2023-03-11T07:54:00.010Z,0.99
2023-03-11T07:56:28.872Z,1.03
2023-03-11T07:58:55.482Z,1.04
2023-03-11T08:01:24.386Z,1.03
2023-03-11T08:03:56.907Z,1.05
2023-03-11T08:06:26.092Z,1.13
2023-03-11T08:08:52.866Z,1.17
2023-03-11T08:11:20.852Z,1.20
2023-03-11T08:13:47.767Z,1.20
2023-03-11T08:16:16.225Z,1.23
2023-03-11T08:18:43.140Z,1.27
2023-03-11T08:21:12.268Z,1.34
2023-03-11T08:23:38.707Z,1.40
2023-03-11T08:26:06.786Z,1.48
2023-03-11T08:28:33.694Z,1.59
2023-03-11T08:31:00.453Z,1.71
2023-03-11T08:33:27.237Z,1.76
2023-03-11T08:35:54.358Z,1.93
2023-03-11T08:38:21.038Z,2.12
2023-03-11T08:40:47.514Z,2.18
2023-03-11T08:43:14.664Z,2.25
2023-03-11T08:45:41.860Z,2.13
2023-03-11T08:48:10.678Z,2.09
2023-03-11T08:50:52.937Z,2.07
2023-03-11T08:53:21.247Z,2.10
2023-03-11T08:55:47.685Z,2.13
2023-03-11T08:58:14.111Z,2.21
2023-03-11T09:00:40.591Z,2.33
2023-03-11T09:03:07.087Z,2.39
2023-03-11T09:05:33.633Z,2.45
2023-03-11T09:08:00.113Z,2.45
2023-03-11T09:10:26.670Z,2.41
2023-03-11T09:12:53.116Z,2.43
2023-03-11T09:15:19.653Z,2.40
2023-03-11T09:17:46.082Z,2.45
2023-03-11T09:20:14.025Z,2.50
2023-03-11T09:22:40.482Z,2.60
2023-03-11T09:25:07.639Z,2.68
2023-03-11T09:27:34.146Z,2.73
2023-03-11T09:30:00.616Z,2.79
2023-03-11T09:32:27.118Z,2.81
2023-03-11T09:34:53.526Z,2.88
2023-03-11T09:37:20.065Z,2.93
2023-03-11T09:39:46.470Z,2.94
2023-03-11T09:42:20.503Z,2.88
2023-03-11T09:44:56.253Z,2.70
2023-03-11T09:47:39.172Z,2.69
2023-03-11T09:50:18.180Z,2.65
2023-03-11T09:52:58.652Z,2.75
2023-03-11T09:55:33.022Z,2.89
2023-03-11T09:58:03.158Z,3.10
2023-03-11T10:00:30.732Z,3.30
2023-03-11T10:02:57.915Z,3.52
2023-03-11T10:05:28.970Z,3.66
2023-03-11T10:08:14.802Z,3.80
2023-03-11T10:10:51.546Z,3.82
2023-03-11T10:14:04.522Z,3.70
2023-03-11T10:16:38.491Z,3.51
2023-03-11T10:19:30.117Z,3.41
2023-03-11T10:22:45.739Z,3.37
2023-03-11T10:25:25.733Z,3.36
2023-03-11T10:27:55.848Z,3.32
2023-03-11T10:30:41.237Z,3.30
2023-03-11T10:33:13.504Z,3.34
2023-03-11T10:35:41.855Z,3.32
2023-03-11T10:38:17.252Z,3.35
2023-03-11T10:40:46.087Z,3.42
2023-03-11T10:43:27.509Z,3.61
2023-03-11T10:45:54.603Z,3.79
2023-03-11T10:48:21.791Z,3.88
2023-03-11T10:51:01.865Z,3.96
2023-03-11T10:53:28.706Z,4.05
2023-03-11T10:55:58.338Z,4.02
2023-03-11T10:58:27.387Z,4.09
2023-03-11T11:01:16.508Z,4.12
2023-03-11T11:03:43.549Z,4.09
2023-03-11T11:06:26.544Z,4.12
2023-03-11T11:09:16.553Z,4.16
2023-03-11T11:12:09.894Z,4.12
2023-03-11T11:14:52.738Z,4.16
2023-03-11T11:17:27.139Z,4.21
2023-03-11T11:19:54.421Z,4.30
2023-03-11T11:22:22.526Z,4.31
2023-03-11T11:24:51.372Z,4.39
2023-03-11T11:27:23.338Z,4.44
2023-03-11T11:30:08.719Z,4.48
2023-03-11T11:32:35.651Z,4.50
2023-03-11T11:35:05.204Z,4.52
2023-03-11T11:37:37.792Z,4.54
2023-03-11T11:40:16.665Z,4.63
2023-03-11T11:42:50.705Z,4.69
2023-03-11T11:45:32.425Z,4.75
2023-03-11T11:48:03.838Z,4.70
2023-03-11T11:50:43.848Z,4.68
2023-03-11T11:53:25.752Z,4.58
2023-03-11T11:55:53.809Z,4.62
2023-03-11T11:58:21.519Z,4.68
2023-03-11T12:01:11.373Z,4.65
2023-03-11T12:03:59.311Z,4.66
2023-03-11T12:06:35.629Z,4.61
2023-03-11T12:09:05.450Z,4.58
2023-03-11T12:11:42.452Z,4.58
2023-03-11T12:14:18.783Z,4.50
2023-03-11T12:16:56.839Z,4.49
2023-03-11T12:19:47.964Z,4.56
2023-03-11T12:22:51.420Z,4.55
2023-03-11T12:25:22.272Z,4.52
2023-03-11T12:28:11.402Z,4.55
2023-03-11T12:30:45.177Z,4.66
2023-03-11T12:33:17.512Z,4.80
2023-03-11T12:35:55.997Z,4.80
2023-03-11T12:38:31.150Z,4.85
2023-03-11T12:41:01.560Z,4.93
2023-03-11T12:43:32.514Z,4.94
2023-03-11T12:46:04.380Z,5.00
2023-03-11T12:48:45.362Z,5.08
2023-03-11T12:52:00.265Z,5.19
2023-03-11T12:54:36.218Z,5.31
2023-03-11T12:57:17.783Z,5.39
2023-03-11T13:00:18.330Z,5.41
2023-03-11T13:03:22.578Z,5.54
2023-03-11T13:06:31.889Z,5.56
2023-03-11T13:08:59.086Z,5.53
2023-03-11T13:11:33.109Z,5.44
2023-03-11T13:14:18.377Z,5.38
2023-03-11T13:16:45.596Z,5.33
2023-03-11T13:19:37.164Z,5.30
2023-03-11T13:22:05.330Z,5.25
2023-03-11T13:24:31.785Z,5.25
2023-03-11T13:27:07.213Z,5.25
2023-03-11T13:29:39.533Z,5.18
2023-03-11T13:32:20.864Z,5.10
2023-03-11T13:35:00.297Z,4.92
2023-03-11T13:37:36.537Z,4.72
2023-03-11T13:40:22.935Z,4.65
2023-03-11T13:42:51.830Z,4.63
2023-03-11T13:45:27.709Z,4.52
2023-03-11T13:47:58.114Z,4.54
2023-03-11T13:50:31.997Z,4.51
2023-03-11T13:53:00.545Z,4.51
2023-03-11T13:55:45.161Z,4.43
2023-03-11T13:58:17.375Z,4.47
2023-03-11T14:00:49.670Z,4.48
2023-03-11T14:03:21.873Z,4.48
2023-03-11T14:05:51.029Z,4.49
2023-03-11T14:08:29.438Z,4.46
2023-03-11T14:10:57.073Z,4.47
2023-03-11T14:13:25.406Z,4.44
2023-03-11T14:16:08.057Z,4.38
2023-03-11T14:18:38.717Z,4.48
2023-03-11T14:21:09.972Z,4.37
2023-03-11T14:23:41.759Z,4.36
2023-03-11T14:26:12.526Z,4.36
2023-03-11T14:28:43.573Z,4.35
2023-03-11T14:31:43.751Z,4.31
2023-03-11T14:34:10.073Z,4.38
2023-03-11T14:36:49.467Z,4.42
2023-03-11T14:39:26.121Z,4.40
2023-03-11T14:41:55.931Z,4.36
2023-03-11T14:44:22.919Z,4.39
2023-03-11T14:46:50.656Z,4.41
2023-03-11T14:49:20.986Z,4.37
2023-03-11T14:51:56.037Z,4.37
2023-03-11T14:54:25.890Z,4.46
2023-03-11T14:57:21.274Z,4.52
2023-03-11T14:59:50.349Z,4.64
2023-03-11T15:02:54.129Z,4.81
2023-03-11T15:05:33.561Z,4.98
2023-03-11T15:08:01.947Z,5.08
2023-03-11T15:10:28.398Z,5.11
2023-03-11T15:13:23.742Z,5.25
2023-03-11T15:15:59.316Z,5.37
2023-03-11T15:18:32.056Z,5.25
2023-03-11T15:21:14.286Z,5.29
2023-03-11T15:23:45.712Z,5.22
2023-03-11T15:26:25.850Z,5.19
2023-03-11T15:29:16.350Z,5.16
2023-03-11T15:31:47.746Z,5.18
2023-03-11T15:34:16.900Z,5.11
2023-03-11T15:36:49.416Z,5.04
2023-03-11T15:39:36.066Z,5.00
2023-03-11T15:42:13.550Z,5.05
2023-03-11T15:44:49.680Z,5.08
2023-03-11T15:47:25.298Z,5.06
2023-03-11T15:49:51.700Z,5.04
2023-03-11T15:52:22.040Z,5.08
2023-03-11T15:54:55.562Z,5.10
2023-03-11T15:57:26.160Z,5.04
2023-03-11T15:59:54.042Z,5.02
2023-03-11T16:02:25.887Z,4.99
2023-03-11T16:04:52.836Z,4.86
2023-03-11T16:07:32.795Z,4.75
2023-03-11T16:10:05.358Z,4.62
2023-03-11T16:12:31.821Z,4.52
2023-03-11T16:14:58.262Z,4.51
2023-03-11T16:17:24.938Z,4.54
2023-03-11T16:19:51.373Z,4.51
2023-03-11T16:22:25.608Z,4.37
2023-03-11T16:24:52.928Z,4.35
2023-03-11T16:27:19.617Z,4.33
2023-03-11T16:29:46.548Z,4.41
2023-03-11T16:32:13.487Z,4.41
2023-03-11T16:34:40.327Z,4.42
2023-03-11T16:37:07.600Z,4.39
2023-03-11T16:39:34.278Z,4.39
2023-03-11T16:42:01.130Z,4.39
2023-03-11T16:44:27.752Z,4.33
2023-03-11T16:46:54.188Z,4.34
2023-03-11T16:49:20.672Z,4.31
2023-03-11T16:51:47.194Z,4.25
2023-03-11T16:54:13.638Z,4.11
2023-03-11T16:56:41.911Z,4.01
2023-03-11T16:59:08.467Z,3.95
2023-03-11T17:01:38.471Z,3.92
2023-03-11T17:04:06.556Z,3.84
2023-03-11T17:06:33.703Z,3.83
2023-03-11T17:09:00.368Z,3.72
2023-03-11T17:11:29.380Z,3.65
2023-03-11T17:14:03.292Z,3.58
2023-03-11T17:16:40.256Z,3.53
2023-03-11T17:19:06.807Z,3.39
2023-03-11T17:21:33.383Z,3.29
2023-03-11T17:23:59.838Z,3.12
2023-03-11T17:26:27.588Z,2.98
2023-03-11T17:28:54.251Z,2.80
2023-03-11T17:31:21.117Z,2.65
2023-03-11T17:33:47.637Z,2.50
2023-03-11T17:36:16.804Z,2.45
2023-03-11T17:38:44.455Z,2.30
2023-03-11T17:41:13.418Z,2.21
2023-03-11T17:43:43.092Z,2.07
